Time;durP1;ratioP1;P1;durP2;ratioP2;P2;SDS_P1;SDS_P2;PMS_P1;PMS_P2;Temp;Humidity;BMP_temperature;BMP_pressure;BME280_temperature;BME280_humidity;BME280_pressure;Samples;Min_cycle;Max_cycle;Signal;HPM_P1;HPM_P2
2023/12/04 00:00:41;;;;;;;0.10;0.10;;;;;;;0.61;58.28;102153.44;4809500;29;20088;-92
2023/12/04 00:03:07;;;;;;;0.10;0.10;;;;;;;0.54;58.65;102160.13;4824451;29;20568;-91
2023/12/04 00:05:32;;;;;;;0.10;0.10;;;;;;;0.50;58.83;102151.59;4809431;29;20117;-92
2023/12/04 00:07:58;;;;;;;0.10;0.10;;;;;;;0.46;58.94;102157.44;4809352;29;20116;-91
2023/12/04 00:10:24;;;;;;;0.20;0.20;;;;;;;0.56;58.30;102161.00;4824121;29;20030;-92
2023/12/04 00:12:49;;;;;;;0.20;0.20;;;;;;;0.51;58.27;102172.81;4809448;29;20027;-91
2023/12/04 00:15:16;;;;;;;0.10;0.10;;;;;;;0.53;58.38;102171.16;4809268;29;20041;-90
2023/12/04 00:17:41;;;;;;;0.20;0.20;;;;;;;0.49;58.06;102165.16;4824535;29;20105;-92
2023/12/04 00:20:09;;;;;;;0.10;0.10;;;;;;;0.58;58.47;102179.69;4824516;29;20481;-92
2023/12/04 00:22:34;;;;;;;0.10;0.10;;;;;;;0.56;57.93;102181.38;4809238;29;20037;-90
2023/12/04 00:25:00;;;;;;;0.10;0.10;;;;;;;0.55;58.29;102189.84;4808880;29;20062;-90
2023/12/04 00:27:28;;;;;;;0.10;0.10;;;;;;;0.56;58.04;102181.38;4809183;29;20041;-91
2023/12/04 00:29:53;;;;;;;0.10;0.10;;;;;;;0.52;58.23;102193.22;4809912;29;20025;-92
2023/12/04 00:32:19;;;;;;;0.10;0.10;;;;;;;0.56;58.38;102187.31;4809253;29;20398;-91
2023/12/04 00:34:44;;;;;;;0.10;0.10;;;;;;;0.56;58.11;102182.22;4808966;29;20516;-90
2023/12/04 00:37:10;;;;;;;0.10;0.10;;;;;;;0.53;58.11;102182.19;4827165;29;20489;-91
2023/12/04 00:39:36;;;;;;;0.10;0.10;;;;;;;0.45;57.62;102170.16;4827167;29;20038;-90
2023/12/04 00:42:02;;;;;;;0.10;0.10;;;;;;;0.56;57.95;102181.38;4824114;29;20058;-92
2023/12/04 00:44:27;;;;;;;0.15;0.15;;;;;;;0.57;57.70;102189.03;4825389;29;20056;-90
2023/12/04 00:46:53;;;;;;;0.10;0.10;;;;;;;0.61;57.31;102179.78;4809046;29;20088;-89
2023/12/04 00:49:18;;;;;;;0.20;0.20;;;;;;;0.59;57.81;102181.44;4809214;29;20483;-91
2023/12/04 00:51:44;;;;;;;0.10;0.10;;;;;;;0.67;57.67;102190.03;4809186;29;20050;-92
2023/12/04 00:54:10;;;;;;;0.20;0.20;;;;;;;0.67;57.10;102195.13;4808986;29;20408;-91
2023/12/04 00:56:38;;;;;;;0.10;0.10;;;;;;;0.76;56.73;102192.75;4809199;29;20414;-91
2023/12/04 00:59:06;;;;;;;0.10;0.10;;;;;;;0.81;56.16;102198.78;4824364;29;20039;-91
2023/12/04 01:01:32;;;;;;;0.10;0.10;;;;;;;0.88;56.43;102194.63;4824071;29;20041;-90
2023/12/04 01:03:57;;;;;;;0.10;0.10;;;;;;;0.90;56.28;102207.41;4823843;29;20038;-90
2023/12/04 01:06:23;;;;;;;0.10;0.10;;;;;;;0.94;56.03;102204.06;4808718;29;20039;-90
2023/12/04 01:08:49;;;;;;;0.20;0.20;;;;;;;0.86;56.01;102197.16;4809092;29;20114;-92
2023/12/04 01:11:15;;;;;;;0.20;0.20;;;;;;;0.88;56.19;102209.91;4808953;29;20412;-92
2023/12/04 01:13:41;;;;;;;0.20;0.20;;;;;;;0.85;55.91;102208.19;4823881;29;20027;-90
2023/12/04 01:16:08;;;;;;;0.20;0.20;;;;;;;0.85;55.44;102198.00;4809122;29;21273;-93
2023/12/04 01:18:33;;;;;;;0.10;0.10;;;;;;;0.85;55.58;102215.84;4823839;29;20489;-92
2023/12/04 01:20:59;;;;;;;0.10;0.10;;;;;;;0.55;56.37;102180.50;4793205;29;20041;-92
2023/12/04 01:23:24;;;;;;;0.20;0.20;;;;;;;0.62;56.32;102203.56;4808271;29;20038;-91
2023/12/04 01:25:50;;;;;;;0.20;0.20;;;;;;;0.42;56.40;102187.94;4808754;29;20084;-91
2023/12/04 01:28:16;;;;;;;0.10;0.10;;;;;;;0.40;56.59;102187.06;4823601;29;20045;-90
2023/12/04 01:30:41;;;;;;;0.20;0.20;;;;;;;0.32;56.75;102196.22;4823741;29;20077;-90
2023/12/04 01:33:08;;;;;;;0.10;0.10;;;;;;;0.28;56.98;102188.50;4808397;29;20038;-92
2023/12/04 01:35:33;;;;;;;0.20;0.20;;;;;;;0.31;57.33;102189.44;4808453;29;20053;-90
2023/12/04 01:37:59;;;;;;;0.20;0.20;;;;;;;0.30;57.12;102195.34;4808328;29;20413;-90
2023/12/04 01:40:25;;;;;;;0.20;0.20;;;;;;;0.24;56.97;102174.03;4808328;29;20031;-91
2023/12/04 01:42:51;;;;;;;0.10;0.10;;;;;;;0.43;56.84;102207.47;4793135;29;20509;-90
2023/12/04 01:45:16;;;;;;;0.10;0.10;;;;;;;0.33;56.45;102192.84;4808312;29;20026;-90
2023/12/04 01:47:42;;;;;;;0.10;0.10;;;;;;;0.30;56.49;102188.56;4807661;29;20030;-90
2023/12/04 01:50:08;;;;;;;0.10;0.10;;;;;;;0.27;56.70;102194.44;4822984;29;20042;-91
2023/12/04 01:52:33;;;;;;;0.20;0.20;;;;;;;0.19;56.41;102174.75;4807971;29;20038;-90
2023/12/04 01:54:59;;;;;;;0.10;0.10;;;;;;;0.41;56.12;102188.75;4808120;29;20038;-90
2023/12/04 01:57:24;;;;;;;0.10;0.10;;;;;;;0.46;56.18;102184.59;4808017;29;20098;-90
2023/12/04 01:59:50;;;;;;;0.10;0.10;;;;;;;0.45;55.92;102182.88;4808136;29;20406;-91
2023/12/04 02:02:16;;;;;;;0.10;0.10;;;;;;;0.39;55.97;102182.75;4807988;29;20042;-91
2023/12/04 02:04:42;;;;;;;0.10;0.10;;;;;;;0.43;56.06;102192.19;4808071;29;20045;-90
2023/12/04 02:07:09;;;;;;;0.10;0.10;;;;;;;0.42;56.45;102203.22;4822948;29;20421;-89
2023/12/04 02:09:34;;;;;;;0.10;0.10;;;;;;;0.45;56.49;102193.06;4823058;29;20090;-90
2023/12/04 02:12:00;;;;;;;0.20;0.20;;;;;;;0.48;56.79;102191.41;4823085;29;20073;-92
2023/12/04 02:14:25;;;;;;;0.10;0.10;;;;;;;0.66;56.85;102211.25;4807865;29;20554;-91
2023/12/04 02:16:51;;;;;;;0.10;0.10;;;;;;;0.65;56.32;102212.09;4807694;29;20486;-92
2023/12/04 02:19:16;;;;;;;0.10;0.10;;;;;;;0.52;56.66;102189.81;4807460;29;20489;-91
2023/12/04 02:21:42;;;;;;;0.10;0.10;;;;;;;0.69;56.67;102207.91;4807694;29;20034;-88
2023/12/04 02:24:07;;;;;;;0.10;0.10;;;;;;;0.64;56.83;102214.63;4807611;29;20034;-90
2023/12/04 02:26:34;;;;;;;0.10;0.10;;;;;;;0.74;56.22;102209.69;4792659;29;20034;-93
2023/12/04 02:29:01;;;;;;;0.10;0.10;;;;;;;0.68;56.57;102208.72;4807421;29;20031;-90
2023/12/04 02:31:27;;;;;;;0.20;0.20;;;;;;;0.76;56.62;102210.59;4807712;29;20042;-92
2023/12/04 02:33:53;;;;;;;0.20;0.20;;;;;;;0.86;56.95;102215.00;4807445;29;20129;-94
2023/12/04 02:36:19;;;;;;;0.10;0.10;;;;;;;0.91;56.27;102214.22;4807752;29;20082;-90
2023/12/04 02:38:44;;;;;;;0.10;0.10;;;;;;;0.86;55.19;102212.44;4807458;29;20505;-92
2023/12/04 02:41:10;;;;;;;0.10;0.10;;;;;;;0.85;55.63;102202.22;4807255;29;20065;-92
2023/12/04 02:43:35;;;;;;;0.20;0.20;;;;;;;0.89;54.61;102226.09;4822443;29;20535;-91
2023/12/04 02:46:01;;;;;;;0.10;0.10;;;;;;;0.90;54.71;102232.91;4807393;29;20481;-91
2023/12/04 02:48:26;;;;;;;0.10;0.10;;;;;;;0.88;54.72;102226.91;4807101;29;20033;-93
2023/12/04 02:50:52;;;;;;;0.10;0.10;;;;;;;0.85;55.47;102226.03;4792298;29;20060;-91
2023/12/04 02:53:18;;;;;;;0.20;0.20;;;;;;;0.83;55.17;102224.28;4822626;29;20617;-92
2023/12/04 02:55:44;;;;;;;0.10;0.10;;;;;;;0.78;55.35;102228.44;4822368;29;20074;-91
2023/12/04 02:58:09;;;;;;;0.20;0.20;;;;;;;0.85;55.07;102228.56;4822144;29;20070;-91
2023/12/04 03:00:35;;;;;;;0.10;0.10;;;;;;;0.79;54.96;102231.03;4821289;29;20072;-92
2023/12/04 03:03:00;;;;;;;0.10;0.10;;;;;;;0.73;56.12;102220.72;4806666;29;20069;-93
2023/12/04 03:05:26;;;;;;;0.20;0.20;;;;;;;0.77;55.44;102219.94;4807154;29;20121;-92
2023/12/04 03:07:51;;;;;;;0.10;0.10;;;;;;;0.73;55.61;102230.91;4807311;29;20451;-90
2023/12/04 03:10:17;;;;;;;0.20;0.20;;;;;;;0.74;54.90;102225.00;4806982;29;20038;-92
2023/12/04 03:12:42;;;;;;;0.10;0.10;;;;;;;0.61;55.18;102224.75;4806940;29;20601;-91
2023/12/04 03:15:10;;;;;;;0.10;0.10;;;;;;;0.70;55.00;102230.03;4791710;29;20031;-92
2023/12/04 03:17:35;;;;;;;0.20;0.20;;;;;;;0.63;55.55;102226.50;4821877;29;20489;-90
2023/12/04 03:20:01;;;;;;;0.10;0.10;;;;;;;0.67;55.41;102227.41;4806693;29;20034;-91
2023/12/04 03:22:27;;;;;;;0.10;0.10;;;;;;;0.60;55.13;102216.25;4791713;29;20041;-91
2023/12/04 03:24:52;;;;;;;0.13;0.13;;;;;;;0.42;55.96;102236.31;4822229;29;20035;-90
2023/12/04 03:27:18;;;;;;;0.20;0.20;;;;;;;0.40;56.50;102225.25;4806773;29;20083;-92
2023/12/04 03:29:43;;;;;;;0.10;0.10;;;;;;;0.48;55.63;102221.97;4822085;29;20034;-90
2023/12/04 03:32:09;;;;;;;0.10;0.10;;;;;;;0.34;56.04;102227.66;4822572;29;20027;-91
2023/12/04 03:34:34;;;;;;;0.20;0.20;;;;;;;0.39;56.15;102234.53;4821594;29;20117;-91
2023/12/04 03:37:00;;;;;;;0.10;0.10;;;;;;;0.30;56.44;102224.22;4806607;29;20481;-91
2023/12/04 03:39:25;;;;;;;0.10;0.10;;;;;;;0.13;57.05;102239.16;4806570;29;20110;-90
2023/12/04 03:41:51;;;;;;;0.10;0.10;;;;;;;0.08;57.37;102233.09;4791444;29;20061;-90
2023/12/04 03:44:16;;;;;;;0.20;0.20;;;;;;;-0.01;57.64;102232.91;4806560;29;20034;-90
2023/12/04 03:46:42;;;;;;;0.10;0.10;;;;;;;0.03;57.41;102237.25;4821452;29;20033;-91
2023/12/04 03:49:07;;;;;;;0.10;0.10;;;;;;;0.05;57.61;102229.66;4821692;29;20041;-92
2023/12/04 03:51:33;;;;;;;0.10;0.10;;;;;;;0.11;57.68;102247.59;4806426;29;20042;-91
2023/12/04 03:53:58;;;;;;;0.10;0.10;;;;;;;0.03;57.34;102234.72;4805983;29;20030;-88
2023/12/04 03:56:24;;;;;;;0.10;0.10;;;;;;;0.05;57.30;102244.91;4805575;29;20042;-86
2023/12/04 03:58:49;;;;;;;0.20;0.20;;;;;;;0.06;57.20;102259.34;4820527;29;20368;-87
2023/12/04 04:01:15;;;;;;;0.10;0.10;;;;;;;-0.08;57.62;102244.66;4804931;29;20035;-87
2023/12/04 04:03:42;;;;;;;0.10;0.10;;;;;;;-0.08;57.23;102251.44;4805605;29;20083;-89
2023/12/04 04:06:08;;;;;;;0.10;0.10;;;;;;;0.09;57.28;102256.84;4822438;29;20035;-92
2023/12/04 04:08:34;;;;;;;0.10;0.10;;;;;;;0.16;56.90;102271.44;4807270;29;20038;-92
2023/12/04 04:10:59;;;;;;;0.10;0.10;;;;;;;0.21;57.50;102265.63;4808923;29;20441;-90
2023/12/04 04:13:25;;;;;;;0.20;0.20;;;;;;;0.09;57.08;102275.53;4796308;29;20498;-92
2023/12/04 04:15:50;;;;;;;0.20;0.20;;;;;;;0.01;56.99;102272.00;4809856;29;20485;-92
2023/12/04 04:18:16;;;;;;;0.20;0.20;;;;;;;0.08;57.22;102278.03;4810546;29;20030;-91
2023/12/04 04:20:42;;;;;;;0.20;0.20;;;;;;;0.07;57.13;102276.34;4825216;29;20073;-91
2023/12/04 04:23:07;;;;;;;0.20;0.20;;;;;;;0.01;57.54;102278.78;4824825;29;20039;-92
2023/12/04 04:25:33;;;;;;;0.20;0.20;;;;;;;-0.02;57.28;102271.91;4809795;29;20490;-92
2023/12/04 04:27:58;;;;;;;0.10;0.10;;;;;;;-0.01;57.17;102276.16;4810722;29;20034;-92
2023/12/04 04:30:24;;;;;;;0.20;0.20;;;;;;;-0.11;57.44;102276.81;4810104;29;20537;-94
2023/12/04 04:32:49;;;;;;;0.10;0.10;;;;;;;-0.07;57.84;102286.22;4809737;29;20034;-89
2023/12/04 04:35:15;;;;;;;0.10;0.10;;;;;;;-0.07;57.55;102278.59;4824640;29;20037;-90
2023/12/04 04:37:40;;;;;;;0.13;0.13;;;;;;;-0.37;57.20;102238.97;4807196;29;20062;-86
2023/12/04 04:40:06;;;;;;;0.10;0.10;;;;;;;-0.38;57.82;102252.50;4823380;29;20034;-90
2023/12/04 04:42:32;;;;;;;0.20;0.20;;;;;;;-0.23;58.08;102272.31;4824198;29;20062;-89
2023/12/04 04:44:58;;;;;;;0.10;0.10;;;;;;;-0.11;58.03;102282.75;4823932;29;20581;-90
2023/12/04 04:47:23;;;;;;;0.20;0.20;;;;;;;-0.16;57.76;102280.94;4824445;29;20030;-90
2023/12/04 04:49:49;;;;;;;0.10;0.10;;;;;;;-0.27;57.60;102279.88;4823847;29;20067;-91
2023/12/04 04:52:14;;;;;;;0.20;0.20;;;;;;;-0.26;57.78;102287.53;4824400;29;20074;-91
2023/12/04 04:54:40;;;;;;;0.20;0.20;;;;;;;-0.25;57.79;102280.75;4823891;29;20421;-91
2023/12/04 04:57:05;;;;;;;0.10;0.10;;;;;;;-0.37;57.35;102264.41;4823587;29;20421;-92
2023/12/04 04:59:31;;;;;;;0.10;0.10;;;;;;;-0.29;57.78;102287.47;4825210;29;20034;-92
2023/12/04 05:01:57;;;;;;;0.10;0.10;;;;;;;-0.38;57.83;102272.84;4827662;29;20133;-87
2023/12/04 05:04:23;;;;;;;0.10;0.10;;;;;;;-0.24;58.27;102305.34;4823069;29;20039;-86
2023/12/04 05:06:48;;;;;;;0.20;0.20;;;;;;;-0.19;57.60;102312.28;4807940;29;20026;-89
2023/12/04 05:09:14;;;;;;;0.20;0.20;;;;;;;-0.30;57.97;102314.53;4823304;29;20038;-87
2023/12/04 05:11:39;;;;;;;0.10;0.10;;;;;;;-0.27;57.71;102316.31;4823156;29;20057;-88
2023/12/04 05:14:05;;;;;;;0.20;0.20;;;;;;;-0.32;57.99;102313.66;4819672;29;20046;-86
2023/12/04 05:16:30;;;;;;;0.20;0.20;;;;;;;-0.32;58.25;102312.81;4821447;29;20037;-88
2023/12/04 05:18:56;;;;;;;0.10;0.10;;;;;;;-0.27;58.20;102300.22;4818433;29;20081;-87
2023/12/04 05:21:21;;;;;;;0.20;0.20;;;;;;;-0.48;58.55;102298.91;4836914;29;20045;-88
2023/12/04 05:23:47;;;;;;;0.20;0.20;;;;;;;-0.41;57.85;102303.28;4833520;29;20046;-85
2023/12/04 05:26:13;;;;;;;0.20;0.20;;;;;;;-0.33;58.20;102322.13;4812479;29;20053;-85
2023/12/04 05:28:38;;;;;;;0.10;0.10;;;;;;;-0.33;58.55;102323.81;4821541;29;20198;-83
2023/12/04 05:31:04;;;;;;;0.10;0.10;;;;;;;-0.37;58.23;102322.88;4820955;29;20022;-85
2023/12/04 05:33:30;;;;;;;0.10;0.10;;;;;;;-0.41;58.62;102323.63;4806567;29;20030;-88
2023/12/04 05:35:56;;;;;;;0.20;0.20;;;;;;;-0.40;58.32;102332.09;4834425;29;20038;-84
2023/12/04 05:38:21;;;;;;;0.10;0.10;;;;;;;-0.45;58.56;102321.84;4795551;29;20133;-86
2023/12/04 05:40:47;;;;;;;0.10;0.10;;;;;;;-0.57;59.20;102308.84;4807453;29;20043;-85
2023/12/04 05:43:12;;;;;;;0.20;0.20;;;;;;;-0.53;58.79;102315.72;4840681;29;20046;-85
2023/12/04 05:45:39;;;;;;;0.10;0.10;;;;;;;-0.43;58.43;102315.09;4810522;29;20034;-92
2023/12/04 05:48:05;;;;;;;0.10;0.10;;;;;;;-0.46;58.01;102299.78;4822083;29;20045;-85
2023/12/04 05:50:30;;;;;;;0.10;0.10;;;;;;;-0.22;57.57;102329.13;4811380;29;20026;-91
2023/12/04 05:52:56;;;;;;;0.10;0.10;;;;;;;-0.19;57.73;102336.84;4818327;29;20124;-85
2023/12/04 05:55:21;;;;;;;0.10;0.10;;;;;;;-0.23;57.39;102333.34;4837397;29;20041;-86
2023/12/04 05:57:47;;;;;;;0.10;0.10;;;;;;;-0.19;57.93;102341.94;4829502;29;20045;-86
2023/12/04 06:00:13;;;;;;;0.10;0.10;;;;;;;-0.22;57.78;102344.38;4829637;29;20034;-87
2023/12/04 06:02:39;;;;;;;0.10;0.10;;;;;;;-0.34;57.36;102332.25;4821718;29;20048;-86
2023/12/04 06:05:06;;;;;;;0.10;0.10;;;;;;;-0.23;57.69;102337.59;4823584;29;20040;-91
2023/12/04 06:07:32;;;;;;;0.10;0.10;;;;;;;-0.51;57.99;102316.59;4825189;29;20489;-90
2023/12/04 06:09:57;;;;;;;0.10;0.10;;;;;;;-0.24;58.96;102335.88;4854285;29;20070;-90
2023/12/04 06:12:23;;;;;;;0.10;0.10;;;;;;;-0.40;58.09;102319.38;4826873;29;20076;-88
2023/12/04 06:14:48;;;;;;;0.10;0.10;;;;;;;-0.25;57.34;102329.06;4823879;29;20091;-82
2023/12/04 06:17:14;;;;;;;0.20;0.20;;;;;;;-0.19;57.45;102350.44;4809043;29;20061;-83
2023/12/04 06:19:39;;;;;;;0.20;0.20;;;;;;;-0.24;57.67;102348.59;4823855;29;20084;-84
2023/12/04 06:22:05;;;;;;;0.10;0.10;;;;;;;-0.09;56.98;102365.06;4823924;29;20038;-88
2023/12/04 06:24:31;;;;;;;0.20;0.20;;;;;;;0.08;57.15;102373.06;4821816;29;20073;-87
2023/12/04 06:26:57;;;;;;;0.20;0.20;;;;;;;0.15;56.71;102385.09;4828568;29;20071;-88
2023/12/04 06:29:23;;;;;;;0.20;0.20;;;;;;;0.12;56.34;102372.31;4827885;29;20069;-91
2023/12/04 06:31:49;;;;;;;0.17;0.17;;;;;;;0.24;56.73;102375.13;4827336;29;20481;-88
2023/12/04 06:34:15;;;;;;;0.20;0.20;;;;;;;0.39;55.94;102392.41;4807922;29;20034;-90
2023/12/04 06:36:41;;;;;;;0.10;0.10;;;;;;;0.34;56.08;102385.50;4823577;29;20065;-85
2023/12/04 06:39:11;;;;;;;0.10;0.10;;;;;;;0.15;56.14;102379.16;4822364;29;20037;-87
2023/12/04 06:41:38;;;;;;;0.10;0.10;;;;;;;0.34;56.16;102403.31;4838868;29;20054;-88
2023/12/04 06:44:05;;;;;;;0.20;0.20;;;;;;;0.35;56.10;102397.41;4831099;29;20026;-91
2023/12/04 06:46:31;;;;;;;0.10;0.10;;;;;;;0.23;56.19;102375.09;4808557;29;20431;-86
2023/12/04 06:49:00;;;;;;;0.20;0.20;;;;;;;0.30;56.48;102409.19;4821955;29;20069;-91
2023/12/04 06:51:25;;;;;;;0.15;0.15;;;;;;;0.27;56.26;102418.44;4847762;29;20548;-91
2023/12/04 06:53:51;;;;;;;0.10;0.10;;;;;;;0.24;56.40;102408.22;4824775;29;20109;-86
2023/12/04 06:56:16;;;;;;;0.10;0.10;;;;;;;0.33;56.57;102422.84;4822806;29;20037;-92
2023/12/04 06:58:42;;;;;;;0.20;0.20;;;;;;;0.38;56.66;102422.91;4825174;29;20030;-90
2023/12/04 07:01:07;;;;;;;0.20;0.20;;;;;;;0.01;56.28;102373.78;4806947;29;20030;-85
2023/12/04 07:03:33;;;;;;;0.10;0.10;;;;;;;0.35;56.23;102415.22;4820828;29;20041;-87
2023/12/04 07:05:58;;;;;;;0.20;0.20;;;;;;;0.28;56.47;102420.16;4812632;29;20049;-85
2023/12/04 07:08:24;;;;;;;0.10;0.10;;;;;;;0.52;56.02;102424.09;4814155;29;20463;-86
2023/12/04 07:10:50;;;;;;;0.20;0.20;;;;;;;0.56;55.61;102420.75;4813808;29;20489;-83
2023/12/04 07:13:16;;;;;;;0.20;0.20;;;;;;;0.68;55.46;102422.69;4834602;29;20037;-87
2023/12/04 07:15:41;;;;;;;0.10;0.10;;;;;;;0.66;55.17;102402.28;4801727;29;20038;-82
2023/12/04 07:18:07;;;;;;;0.20;0.20;;;;;;;0.83;54.87;102430.66;4823385;29;20053;-89
2023/12/04 07:20:32;;;;;;;0.20;0.20;;;;;;;0.77;54.56;102421.19;4810094;29;20501;-89
2023/12/04 07:22:58;;;;;;;0.10;0.10;;;;;;;0.86;54.62;102426.47;4784575;29;20511;-93
2023/12/04 07:25:24;;;;;;;0.10;0.10;;;;;;;0.75;54.63;102414.34;4838020;29;20034;-87
2023/12/04 07:27:49;;;;;;;0.20;0.20;;;;;;;0.86;54.15;102420.53;4821273;29;20037;-81
2023/12/04 07:30:15;;;;;;;0.10;0.10;;;;;;;0.97;54.05;102436.88;4838109;29;20042;-85
2023/12/04 07:32:41;;;;;;;0.10;0.10;;;;;;;0.79;53.80;102394.09;4796310;29;20022;-87
2023/12/04 07:35:07;;;;;;;0.10;0.10;;;;;;;0.95;54.12;102432.59;4831806;29;20515;-87
2023/12/04 07:37:32;;;;;;;0.10;0.10;;;;;;;0.93;53.97;102401.13;4808312;29;20030;-80
2023/12/04 07:39:58;;;;;;;0.10;0.10;;;;;;;1.18;53.81;102428.81;4838654;29;20057;-80
2023/12/04 07:42:23;;;;;;;0.20;0.20;;;;;;;1.24;53.34;102433.13;4821039;29;20054;-87
2023/12/04 07:44:49;;;;;;;0.20;0.20;;;;;;;1.25;53.50;102425.50;4816973;29;20061;-89
2023/12/04 07:47:15;;;;;;;0.10;0.10;;;;;;;1.40;52.93;102433.44;4838872;29;20117;-84
2023/12/04 07:49:41;;;;;;;0.10;0.10;;;;;;;1.73;52.03;102435.69;4828746;29;20053;-89
2023/12/04 07:52:07;;;;;;;0.10;0.10;;;;;;;1.56;52.60;102410.75;4820827;29;20048;-85
2023/12/04 07:54:33;;;;;;;0.10;0.10;;;;;;;1.79;51.50;102424.75;4819273;29;20041;-83
2023/12/04 07:56:58;;;;;;;0.10;0.10;;;;;;;1.81;51.78;102425.63;4838489;29;20032;-88
2023/12/04 07:59:24;;;;;;;0.20;0.20;;;;;;;1.96;50.60;102430.94;4809757;29;20045;-90
2023/12/04 08:01:50;;;;;;;0.20;0.20;;;;;;;1.72;50.10;102405.06;4836475;29;20098;-88
2023/12/04 08:04:15;;;;;;;0.10;0.10;;;;;;;1.89;50.44;102426.63;4836274;29;20067;-89
2023/12/04 08:06:41;;;;;;;0.10;0.10;;;;;;;1.85;51.15;102435.03;4820810;29;20045;-85
2023/12/04 08:09:09;;;;;;;0.10;0.10;;;;;;;1.85;50.94;102437.59;4814281;29;20042;-92
2023/12/04 08:11:36;;;;;;;0.20;0.20;;;;;;;1.99;50.38;102428.47;4832005;29;20033;-89
2023/12/04 08:14:01;;;;;;;0.20;0.20;;;;;;;2.29;50.32;102432.31;4826111;29;20120;-86
2023/12/04 08:16:28;;;;;;;0.10;0.10;;;;;;;2.45;49.63;102430.78;4831343;29;20135;-89
2023/12/04 08:18:54;;;;;;;0.20;0.20;;;;;;;2.52;49.17;102440.25;4825827;29;20496;-90
2023/12/04 08:21:20;;;;;;;0.13;0.13;;;;;;;2.53;49.04;102431.75;4828321;29;20038;-90
2023/12/04 08:23:45;;;;;;;0.20;0.20;;;;;;;2.71;48.55;102447.34;4828210;29;20036;-91
2023/12/04 08:26:11;;;;;;;0.20;0.20;;;;;;;2.73;48.32;102430.31;4826904;29;20041;-86
2023/12/04 08:28:41;;;;;;;0.10;0.10;;;;;;;2.85;48.29;102443.25;4828620;29;20113;-83
2023/12/04 08:31:09;;;;;;;0.20;0.20;;;;;;;2.78;46.73;102438.06;4824144;29;20034;-86
2023/12/04 08:33:35;;;;;;;0.13;0.13;;;;;;;2.89;47.46;102456.94;4825560;29;20026;-85
2023/12/04 08:36:01;;;;;;;0.10;0.10;;;;;;;2.85;46.33;102450.03;4816158;29;20415;-89
2023/12/04 08:38:26;;;;;;;0.10;0.10;;;;;;;2.85;47.03;102432.16;4807245;29;20483;-86
2023/12/04 08:40:53;;;;;;;0.20;0.20;;;;;;;3.05;46.66;102453.72;4843816;29;20117;-83
2023/12/04 08:43:19;;;;;;;0.10;0.10;;;;;;;2.84;46.86;102427.88;4807958;29;20033;-85
2023/12/04 08:45:45;;;;;;;0.10;0.10;;;;;;;3.19;46.61;102445.34;4818290;29;20109;-85
2023/12/04 08:48:11;;;;;;;0.10;0.10;;;;;;;3.26;46.19;102444.56;4835086;29;20085;-85
2023/12/04 08:50:39;;;;;;;0.20;0.20;;;;;;;3.43;45.38;102455.78;4803058;29;20521;-92
2023/12/04 08:53:05;;;;;;;0.10;0.10;;;;;;;3.60;45.24;102455.97;4806118;29;20166;-91
2023/12/04 08:55:30;;;;;;;0.10;0.10;;;;;;;3.65;44.99;102444.09;4805045;29;20147;-93
2023/12/04 08:57:56;;;;;;;0.10;0.10;;;;;;;3.70;44.46;102453.50;4841676;29;20041;-88
2023/12/04 09:00:42;;;;;;;0.10;0.10;;;;;;;3.70;44.65;102448.38;4824573;29;20098;-85
2023/12/04 09:03:11;;;;;;;0.20;0.20;;;;;;;3.50;44.48;102426.00;4840274;29;20137;-90
2023/12/04 09:05:37;;;;;;;0.10;0.10;;;;;;;3.71;45.15;102446.66;4830386;29;20033;-87
2023/12/04 09:08:03;;;;;;;0.20;0.20;;;;;;;3.90;44.55;102445.13;4823680;29;20137;-90
2023/12/04 09:10:28;;;;;;;0.15;0.15;;;;;;;3.84;44.41;102447.66;4832395;29;20034;-86
2023/12/04 09:12:54;;;;;;;0.20;0.20;;;;;;;3.64;44.57;102420.19;4797255;29;20493;-89
2023/12/04 09:15:20;;;;;;;0.10;0.10;;;;;;;3.67;44.95;102409.97;4841386;29;20034;-91
2023/12/04 09:17:45;;;;;;;0.15;0.15;;;;;;;3.91;44.38;102441.72;4808768;29;20428;-89
2023/12/04 09:20:11;;;;;;;0.20;0.20;;;;;;;3.91;43.84;102428.91;4822313;29;20034;-90
2023/12/04 09:22:38;;;;;;;0.20;0.20;;;;;;;4.15;44.06;102436.78;4822156;29;20456;-90
2023/12/04 09:25:08;;;;;;;0.20;0.20;;;;;;;4.13;44.18;102438.47;4818570;29;20561;-87
2023/12/04 09:27:34;;;;;;;0.10;0.10;;;;;;;4.13;43.98;102410.31;4818451;29;20089;-88
2023/12/04 09:30:00;;;;;;;0.10;0.10;;;;;;;4.29;43.40;102432.56;4809049;29;20034;-88
2023/12/04 09:32:25;;;;;;;0.10;0.10;;;;;;;4.24;43.35;102413.78;4825533;29;20058;-86
2023/12/04 09:34:51;;;;;;;0.20;0.20;;;;;;;4.23;43.42;102417.19;4831147;29;20046;-89
2023/12/04 09:37:16;;;;;;;0.20;0.20;;;;;;;4.26;43.79;102426.59;4826257;29;20041;-90
2023/12/04 09:39:42;;;;;;;0.20;0.20;;;;;;;4.30;42.83;102426.59;4825241;29;20034;-90
2023/12/04 09:42:08;;;;;;;0.20;0.20;;;;;;;4.42;42.99;102422.38;4816408;29;20570;-91
2023/12/04 09:44:34;;;;;;;0.10;0.10;;;;;;;4.31;43.80;102412.94;4809616;29;20042;-89
2023/12/04 09:46:59;;;;;;;0.20;0.20;;;;;;;4.48;43.57;102413.03;4810204;29;20064;-89
2023/12/04 09:49:26;;;;;;;0.20;0.20;;;;;;;4.54;43.27;102414.78;4795781;29;20524;-88
2023/12/04 09:51:51;;;;;;;0.20;0.20;;;;;;;4.44;43.21;102401.06;4815000;29;20086;-86
2023/12/04 09:54:19;;;;;;;0.10;0.10;;;;;;;4.44;43.23;102398.50;4810520;29;20026;-84
2023/12/04 09:56:45;;;;;;;0.20;0.20;;;;;;;4.56;43.44;102405.38;4857201;29;20499;-86
2023/12/04 09:59:10;;;;;;;0.10;0.10;;;;;;;4.54;43.54;102407.09;4821664;29;20049;-84
2023/12/04 10:01:36;;;;;;;0.20;0.20;;;;;;;4.59;43.26;102395.13;4802019;29;20034;-84
2023/12/04 10:04:04;;;;;;;0.20;0.20;;;;;;;4.66;43.60;102404.56;4808213;29;20072;-87
2023/12/04 10:06:30;;;;;;;0.20;0.20;;;;;;;4.70;43.80;102402.88;4822844;29;20038;-85
2023/12/04 10:08:58;;;;;;;0.20;0.20;;;;;;;4.88;43.79;102402.94;4824800;29;20489;-85
2023/12/04 10:11:24;;;;;;;0.10;0.10;;;;;;;4.83;43.66;102400.38;4840255;29;20393;-84
2023/12/04 10:13:50;;;;;;;0.10;0.10;;;;;;;4.88;44.41;102398.66;4808990;29;20030;-85
2023/12/04 10:16:31;;;;;;;0.20;0.20;;;;;;;4.87;43.73;102376.44;4808433;29;20519;-85
2023/12/04 10:18:57;;;;;;;0.20;0.20;;;;;;;5.05;43.37;102385.03;4808252;29;20041;-88
2023/12/04 10:21:22;;;;;;;0.20;0.20;;;;;;;4.97;43.24;102387.56;4840077;29;20369;-90
2023/12/04 10:23:48;;;;;;;0.20;0.20;;;;;;;5.01;43.40;102391.00;4808660;29;20090;-86
2023/12/04 10:26:16;;;;;;;0.20;0.20;;;;;;;4.92;44.32;102390.97;4836815;29;20033;-89
2023/12/04 10:29:01;;;;;;;0.20;0.20;;;;;;;4.86;43.46;102394.38;4822182;29;20098;-89
2023/12/04 10:31:34;;;;;;;0.20;0.20;;;;;;;4.76;44.53;102382.38;4821414;29;20497;-92
2023/12/04 10:34:04;;;;;;;0.20;0.20;;;;;;;4.84;44.41;102380.72;4829890;29;20134;-87
2023/12/04 10:36:30;;;;;;;0.17;0.17;;;;;;;5.04;45.42;102380.75;4805756;29;20038;-86
2023/12/04 10:39:04;;;;;;;0.20;0.20;;;;;;;5.15;44.32;102376.50;4806931;29;20041;-85
2023/12/04 10:41:30;;;;;;;0.20;0.20;;;;;;;5.07;44.13;102368.78;4841026;29;20054;-88
2023/12/04 10:43:56;;;;;;;0.20;0.20;;;;;;;5.20;44.65;102374.78;4840809;29;20042;-93
2023/12/04 10:46:22;;;;;;;0.20;0.20;;;;;;;5.19;44.08;102366.22;4808870;29;20220;-84
2023/12/04 10:48:48;;;;;;;0.20;0.20;;;;;;;5.30;44.28;102363.66;4823411;29;20504;-83
2023/12/04 10:51:13;;;;;;;0.10;0.10;;;;;;;5.41;44.43;102361.97;4828621;29;20523;-87
2023/12/04 10:53:42;;;;;;;0.20;0.20;;;;;;;5.43;44.80;102367.13;4820079;29;20484;-85
2023/12/04 10:56:18;;;;;;;0.20;0.20;;;;;;;5.53;43.91;102352.56;4840130;29;20038;-84
2023/12/04 10:58:44;;;;;;;0.20;0.20;;;;;;;5.54;44.43;102360.25;4804594;29;20094;-89
2023/12/04 11:01:11;;;;;;;0.20;0.20;;;;;;;5.59;43.78;102357.69;4824450;29;20033;-88
2023/12/04 11:03:52;;;;;;;0.17;0.17;;;;;;;5.63;43.68;102354.25;4823055;29;20041;-91
2023/12/04 11:06:18;;;;;;;0.20;0.20;;;;;;;5.60;43.97;102346.53;4823695;29;20034;-87
2023/12/04 11:08:43;;;;;;;0.20;0.20;;;;;;;5.60;44.86;102344.84;4823732;29;20047;-91
2023/12/04 11:11:12;;;;;;;0.20;0.20;;;;;;;5.76;44.66;102350.81;4817346;29;20038;-88
2023/12/04 11:13:43;;;;;;;0.20;0.20;;;;;;;5.60;44.08;102344.84;4808108;29;20044;-89
2023/12/04 11:16:27;;;;;;;0.20;0.20;;;;;;;5.50;44.23;102319.16;4808415;29;20094;-85
2023/12/04 11:18:56;;;;;;;0.20;0.20;;;;;;;5.70;43.35;102338.84;4826076;29;20112;-88
2023/12/04 11:21:22;;;;;;;0.20;0.20;;;;;;;5.76;44.52;102345.69;4822060;29;20030;-89
2023/12/04 11:23:48;;;;;;;0.20;0.20;;;;;;;5.73;45.86;102345.69;4804105;29;20046;-86
2023/12/04 11:26:13;;;;;;;0.20;0.20;;;;;;;5.85;45.69;102332.81;4804287;29;20037;-85